Time;durP1;ratioP1;P1;durP2;ratioP2;P2;SDS_P1;SDS_P2;PMS_P1;PMS_P2;Temp;Humidity;BMP_temperature;BMP_pressure;BME280_temperature;BME280_humidity;BME280_pressure;Samples;Min_cycle;Max_cycle;Signal;HPM_P1;HPM_P2
2022/10/23 00:01:37;;;;;;;0.00;0.00;;;11.80;99.90;;;;;;5116024;28;20134;-81
2022/10/23 00:04:07;;;;;;;0.00;0.00;;;11.80;99.90;;;;;;5098239;28;20055;-81
2022/10/23 00:06:34;;;;;;;0.00;0.00;;;11.80;99.90;;;;;;5098322;28;20513;-81
2022/10/23 00:09:01;;;;;;;0.00;0.00;;;11.80;99.90;;;;;;5098200;28;20130;-81
2022/10/23 00:11:29;;;;;;;0.00;0.00;;;11.80;99.90;;;;;;5115235;28;20126;-81
2022/10/23 00:13:58;;;;;;;0.00;0.00;;;11.80;99.90;;;;;;5097860;28;20055;-81
2022/10/23 00:16:23;;;;;;;0.00;0.00;;;11.80;99.90;;;;;;5115060;28;20047;-81
2022/10/23 00:18:49;;;;;;;0.00;0.00;;;11.70;99.90;;;;;;5115003;28;20039;-81
2022/10/23 00:21:16;;;;;;;0.30;0.25;;;11.60;99.90;;;;;;5115044;28;20050;-81
2022/10/23 00:23:42;;;;;;;0.00;0.00;;;11.60;99.90;;;;;;5114931;28;20494;-81
2022/10/23 00:26:15;;;;;;;0.00;0.00;;;11.70;99.90;;;;;;5114811;28;20058;-81
2022/10/23 00:28:46;;;;;;;0.10;0.10;;;11.60;99.90;;;;;;5097761;28;20506;-81
2022/10/23 00:31:12;;;;;;;0.00;0.00;;;11.70;99.90;;;;;;5114809;28;22315;-81
2022/10/23 00:33:38;;;;;;;0.00;0.00;;;11.60;99.90;;;;;;5097562;28;20146;-81
2022/10/23 00:36:09;;;;;;;0.00;0.00;;;11.50;99.90;;;;;;5114316;28;20475;-81
2022/10/23 00:38:35;;;;;;;0.00;0.00;;;11.50;99.90;;;;;;5114493;28;20089;-81
2022/10/23 00:41:01;;;;;;;0.00;0.00;;;11.50;99.90;;;;;;5097570;28;20138;-81
2022/10/23 00:43:28;;;;;;;0.00;0.00;;;11.60;99.90;;;;;;5097420;28;20095;-81
2022/10/23 00:45:54;;;;;;;0.00;0.00;;;11.50;99.90;;;;;;5114616;28;20048;-81
2022/10/23 00:48:20;;;;;;;0.00;0.00;;;11.50;99.90;;;;;;5114484;28;20093;-81
2022/10/23 00:50:48;;;;;;;0.00;0.00;;;11.60;99.90;;;;;;5114412;28;20070;-81
2022/10/23 00:53:15;;;;;;;0.00;0.00;;;11.60;99.90;;;;;;5114528;28;20048;-81
2022/10/23 00:55:45;;;;;;;0.00;0.00;;;11.60;99.90;;;;;;5096922;28;20058;-81
2022/10/23 00:58:16;;;;;;;0.00;0.00;;;11.60;99.90;;;;;;5097236;28;20052;-81
2022/10/23 01:00:53;;;;;;;0.00;0.00;;;11.60;99.90;;;;;;5114154;28;20047;-81
2022/10/23 01:03:22;;;;;;;0.00;0.00;;;11.60;99.90;;;;;;5097191;28;20522;-81
2022/10/23 01:05:58;;;;;;;0.35;0.10;;;11.70;99.90;;;;;;5097554;28;20054;-81
2022/10/23 01:09:07;;;;;;;0.35;0.32;;;11.60;99.90;;;;;;5114679;28;20044;-81
2022/10/23 01:11:51;;;;;;;0.00;0.00;;;11.50;99.90;;;;;;5058867;28;20484;-81
2022/10/23 01:14:30;;;;;;;0.10;0.10;;;11.50;99.90;;;;;;5075633;28;20510;-81
2022/10/23 01:17:12;;;;;;;0.00;0.00;;;11.40;99.90;;;;;;5059100;28;20438;-81
2022/10/23 01:20:17;;;;;;;0.00;0.00;;;11.30;99.90;;;;;;5075653;28;20083;-81
2022/10/23 01:23:02;;;;;;;0.00;0.00;;;11.30;99.90;;;;;;5058265;28;20052;-81
2022/10/23 01:25:31;;;;;;;0.08;0.08;;;11.30;99.90;;;;;;5075604;28;20052;-81
2022/10/23 01:28:01;;;;;;;0.00;0.00;;;11.20;99.90;;;;;;5075193;28;20471;-81
2022/10/23 01:30:29;;;;;;;0.00;0.00;;;11.10;99.90;;;;;;5058835;28;20494;-81
2022/10/23 01:33:09;;;;;;;0.00;0.00;;;11.10;99.90;;;;;;5075050;28;20040;-81
2022/10/23 01:35:42;;;;;;;0.00;0.00;;;11.00;99.90;;;;;;5075099;28;20142;-81
2022/10/23 01:38:13;;;;;;;0.00;0.00;;;11.00;99.90;;;;;;5075173;28;20424;-81
2022/10/23 01:41:03;;;;;;;0.10;0.05;;;10.90;99.90;;;;;;5075189;28;20051;-81
2022/10/23 01:43:46;;;;;;;0.00;0.00;;;10.80;99.90;;;;;;5075764;28;20139;-81
2022/10/23 01:46:15;;;;;;;0.50;0.00;;;10.90;99.90;;;;;;5080505;28;20193;-81
2022/10/23 01:48:45;;;;;;;0.00;0.00;;;10.70;99.90;;;;;;5113198;28;20043;-81
2022/10/23 01:51:13;;;;;;;0.20;0.17;;;10.60;99.90;;;;;;5113640;28;20144;-81
2022/10/23 01:53:42;;;;;;;0.00;0.00;;;10.60;99.90;;;;;;5096330;28;20139;-81
2022/10/23 01:56:14;;;;;;;0.00;0.00;;;10.60;99.90;;;;;;5096026;28;20050;-81
2022/10/23 01:58:44;;;;;;;0.00;0.00;;;10.60;99.90;;;;;;5096397;28;20054;-81
2022/10/23 02:01:12;;;;;;;0.45;0.38;;;10.60;99.90;;;;;;5096294;28;20044;-81
2022/10/23 02:03:39;;;;;;;0.00;0.00;;;10.50;99.90;;;;;;5096345;28;20047;-81
2022/10/23 02:06:05;;;;;;;0.00;0.00;;;10.50;99.90;;;;;;5113079;28;20051;-81
2022/10/23 02:08:31;;;;;;;0.85;0.20;;;10.50;99.90;;;;;;5096944;28;20046;-81
2022/10/23 02:11:05;;;;;;;0.10;0.10;;;10.50;99.90;;;;;;5113410;28;20441;-81
2022/10/23 02:14:05;;;;;;;0.20;0.20;;;10.50;99.90;;;;;;5100457;28;20479;-81
2022/10/23 02:16:46;;;;;;;0.28;0.10;;;10.40;99.90;;;;;;5100337;28;20134;-81
2022/10/23 02:19:20;;;;;;;0.00;0.00;;;10.50;99.90;;;;;;5100647;28;20097;-81
2022/10/23 02:21:57;;;;;;;0.00;0.00;;;10.40;99.90;;;;;;5117817;28;20441;-81
2022/10/23 02:24:40;;;;;;;0.00;0.00;;;10.40;99.90;;;;;;5117408;28;20044;-81
2022/10/23 02:27:20;;;;;;;0.08;0.00;;;10.40;99.90;;;;;;5100448;28;20052;-81
2022/10/23 02:29:52;;;;;;;1.27;0.32;;;10.30;99.90;;;;;;5117574;28;20043;-81
2022/10/23 02:32:21;;;;;;;0.10;0.00;;;10.40;99.90;;;;;;5117317;28;20131;-81
2022/10/23 02:34:47;;;;;;;1.65;0.63;;;10.40;99.90;;;;;;5099575;28;20392;-81
2022/10/23 02:37:13;;;;;;;0.00;0.00;;;10.40;99.90;;;;;;5116983;28;20453;-81
2022/10/23 02:39:39;;;;;;;0.00;0.00;;;10.30;99.90;;;;;;5116596;28;20475;-81
2022/10/23 02:42:21;;;;;;;0.00;0.00;;;10.30;99.90;;;;;;5117086;28;20055;-81
2022/10/23 02:45:14;;;;;;;2.70;0.73;;;10.30;99.90;;;;;;5116994;28;20051;-81
2022/10/23 02:47:39;;;;;;;0.00;0.00;;;10.30;99.90;;;;;;5116942;28;20043;-81
2022/10/23 02:50:19;;;;;;;0.08;0.08;;;10.40;99.90;;;;;;5116609;28;20403;-81
2022/10/23 02:53:00;;;;;;;0.00;0.00;;;10.30;99.90;;;;;;5099706;28;20456;-81
2022/10/23 02:55:52;;;;;;;0.00;0.00;;;10.30;99.90;;;;;;5116757;28;20043;-81
2022/10/23 02:58:29;;;;;;;1.08;0.65;;;10.30;99.90;;;;;;5116564;28;20047;-81
2022/10/23 03:01:04;;;;;;;0.00;0.00;;;10.30;99.90;;;;;;5117214;28;20050;-81
2022/10/23 03:03:34;;;;;;;0.10;0.10;;;10.30;99.90;;;;;;5100033;28;20108;-81
2022/10/23 03:06:00;;;;;;;0.00;0.00;;;10.30;99.90;;;;;;5116620;28;20043;-80
2022/10/23 03:08:26;;;;;;;0.10;0.00;;;10.30;99.90;;;;;;5099546;28;20100;-81
2022/10/23 03:10:51;;;;;;;0.00;0.00;;;10.40;99.90;;;;;;5116164;28;20131;-81
2022/10/23 03:13:17;;;;;;;0.00;0.00;;;10.40;99.90;;;;;;5115706;28;20040;-81
2022/10/23 03:15:43;;;;;;;0.00;0.00;;;10.30;99.90;;;;;;5116762;28;20039;-81
2022/10/23 03:18:08;;;;;;;0.00;0.00;;;10.50;99.90;;;;;;5116061;28;20043;-81
2022/10/23 03:20:34;;;;;;;0.00;0.00;;;10.50;99.90;;;;;;5115970;28;20044;-81
2022/10/23 03:23:00;;;;;;;0.15;0.15;;;10.40;99.90;;;;;;5116094;28;20071;-81
2022/10/23 03:25:26;;;;;;;0.65;0.00;;;10.50;99.90;;;;;;5115973;28;20032;-81
2022/10/23 03:27:51;;;;;;;0.00;0.00;;;10.40;99.90;;;;;;5115693;28;20103;-81
2022/10/23 03:30:18;;;;;;;0.00;0.00;;;10.40;99.90;;;;;;5115765;28;20130;-81
2022/10/23 03:32:43;;;;;;;0.05;0.05;;;10.30;99.90;;;;;;5098648;28;20494;-81
2022/10/23 03:35:09;;;;;;;0.00;0.00;;;10.30;99.90;;;;;;5115692;28;20063;-81
2022/10/23 03:37:34;;;;;;;1.08;0.30;;;10.30;99.90;;;;;;5115942;28;20058;-81
2022/10/23 03:40:01;;;;;;;0.00;0.00;;;10.30;99.90;;;;;;5115407;28;20126;-81
2022/10/23 03:42:26;;;;;;;0.00;0.00;;;10.30;99.90;;;;;;5098747;28;20130;-80
2022/10/23 03:44:52;;;;;;;0.00;0.00;;;10.30;99.90;;;;;;5098777;28;20196;-80
2022/10/23 03:47:18;;;;;;;0.00;0.00;;;10.30;99.90;;;;;;5098697;28;20078;-80
2022/10/23 03:49:43;;;;;;;0.08;0.08;;;10.20;99.90;;;;;;5115657;28;20047;-81
2022/10/23 03:52:09;;;;;;;2.65;0.82;;;10.20;99.90;;;;;;5098324;28;20457;-80
2022/10/23 03:54:35;;;;;;;0.00;0.00;;;10.20;99.90;;;;;;5115385;28;20096;-80
2022/10/23 03:57:01;;;;;;;0.90;0.00;;;10.30;99.90;;;;;;5115406;28;20096;-80
2022/10/23 03:59:27;;;;;;;0.00;0.00;;;10.30;99.90;;;;;;5115963;28;20055;-80
2022/10/23 04:01:53;;;;;;;4.07;0.90;;;10.30;99.90;;;;;;5098253;28;20403;-80
2022/10/23 04:04:19;;;;;;;0.30;0.10;;;10.30;99.90;;;;;;5115310;28;20421;-80
2022/10/23 04:06:44;;;;;;;0.00;0.00;;;10.30;99.90;;;;;;5115128;28;20043;-80
2022/10/23 04:09:10;;;;;;;0.65;0.22;;;10.30;99.90;;;;;;5114798;28;20043;-80
2022/10/23 04:11:35;;;;;;;0.00;0.00;;;10.30;99.90;;;;;;5098066;28;20039;-82
2022/10/23 04:14:01;;;;;;;0.00;0.00;;;10.30;99.90;;;;;;5098132;28;20039;-81
2022/10/23 04:16:27;;;;;;;0.00;0.00;;;10.30;99.90;;;;;;5115490;28;20134;-81
2022/10/23 04:18:52;;;;;;;0.00;0.00;;;10.30;99.90;;;;;;5098172;28;20443;-81
2022/10/23 04:21:18;;;;;;;0.00;0.00;;;10.20;99.90;;;;;;5114943;28;20158;-82
2022/10/23 04:23:44;;;;;;;0.28;0.10;;;10.30;99.90;;;;;;5097359;28;20091;-82
2022/10/23 04:26:10;;;;;;;0.00;0.00;;;10.30;99.90;;;;;;5098266;28;20109;-81
2022/10/23 04:28:36;;;;;;;0.00;0.00;;;10.30;99.90;;;;;;5097739;28;20075;-82
2022/10/23 04:31:01;;;;;;;4.38;0.10;;;10.30;99.90;;;;;;5115172;28;20136;-82
2022/10/23 04:33:27;;;;;;;0.00;0.00;;;10.20;99.90;;;;;;5096898;28;20055;-82
2022/10/23 04:35:53;;;;;;;0.10;0.10;;;10.30;99.90;;;;;;5096954;28;20048;-82
2022/10/23 04:38:19;;;;;;;0.10;0.00;;;10.30;99.90;;;;;;5097394;28;20130;-81
2022/10/23 04:40:44;;;;;;;0.20;0.10;;;10.30;99.90;;;;;;5115140;28;20062;-82
2022/10/23 04:43:10;;;;;;;0.05;0.05;;;10.40;99.90;;;;;;5114422;28;20507;-82
2022/10/23 04:45:36;;;;;;;0.00;0.00;;;10.30;99.90;;;;;;5114672;28;20108;-81
2022/10/23 04:48:02;;;;;;;0.00;0.00;;;10.30;99.90;;;;;;5114436;28;20471;-82
2022/10/23 04:50:27;;;;;;;0.15;0.00;;;10.30;99.90;;;;;;5114642;28;20146;-83
2022/10/23 04:52:55;;;;;;;0.20;0.20;;;10.30;99.90;;;;;;5096555;28;20054;-81
2022/10/23 04:55:21;;;;;;;0.00;0.00;;;10.30;99.90;;;;;;5097339;28;20563;-81
2022/10/23 04:57:46;;;;;;;0.10;0.10;;;10.30;99.90;;;;;;5114274;28;20043;-81
2022/10/23 05:00:14;;;;;;;0.00;0.00;;;10.20;99.90;;;;;;5114607;28;20039;-81
2022/10/23 05:02:40;;;;;;;0.20;0.13;;;10.30;99.90;;;;;;5096772;28;20491;-81
2022/10/23 05:05:06;;;;;;;0.00;0.00;;;10.30;99.90;;;;;;5097157;28;20483;-81
2022/10/23 05:07:33;;;;;;;0.00;0.00;;;10.30;99.90;;;;;;5107315;28;20114;-81
2022/10/23 05:09:59;;;;;;;0.20;0.20;;;10.30;99.90;;;;;;5076887;28;20048;-82
2022/10/23 05:12:26;;;;;;;0.00;0.00;;;10.20;99.90;;;;;;5077082;28;20052;-81
2022/10/23 05:14:52;;;;;;;0.20;0.10;;;10.20;99.90;;;;;;5076821;28;20040;-81
2022/10/23 05:17:32;;;;;;;0.10;0.10;;;10.20;99.90;;;;;;5076681;28;20387;-81
2022/10/23 05:20:01;;;;;;;0.75;0.13;;;10.20;99.90;;;;;;5094025;28;20040;-81
2022/10/23 05:22:32;;;;;;;0.00;0.00;;;10.20;99.90;;;;;;5077149;28;20044;-82
2022/10/23 05:25:00;;;;;;;1.38;0.30;;;10.20;99.90;;;;;;5076434;28;20047;-82
2022/10/23 05:27:26;;;;;;;0.03;0.03;;;10.20;99.90;;;;;;5076568;28;20138;-82
2022/10/23 05:29:52;;;;;;;0.00;0.00;;;10.20;99.90;;;;;;5076491;28;20470;-81
2022/10/23 05:32:18;;;;;;;0.43;0.20;;;10.20;99.90;;;;;;5076181;28;20075;-83
2022/10/23 05:34:44;;;;;;;0.00;0.00;;;10.20;99.90;;;;;;5092986;28;20095;-81
2022/10/23 05:37:12;;;;;;;0.10;0.10;;;10.20;99.90;;;;;;5093187;28;20376;-81
2022/10/23 05:39:37;;;;;;;0.00;0.00;;;10.30;99.90;;;;;;5093058;28;20081;-81
2022/10/23 05:42:03;;;;;;;0.00;0.00;;;10.20;99.90;;;;;;5076228;28;20040;-82
2022/10/23 05:44:29;;;;;;;0.00;0.00;;;10.20;99.90;;;;;;5093210;28;20040;-81
2022/10/23 05:46:54;;;;;;;0.00;0.00;;;10.30;99.90;;;;;;5075232;28;20487;-81
2022/10/23 05:49:22;;;;;;;0.00;0.00;;;10.30;99.90;;;;;;5092984;28;20055;-81
2022/10/23 05:51:48;;;;;;;0.10;0.10;;;10.30;99.90;;;;;;5076073;28;20116;-81
2022/10/23 05:54:13;;;;;;;0.60;0.25;;;10.30;99.90;;;;;;5093159;28;20040;-81
2022/10/23 05:56:42;;;;;;;0.00;0.00;;;10.20;99.90;;;;;;5092951;28;20170;-81
2022/10/23 05:59:07;;;;;;;0.00;0.00;;;10.20;99.90;;;;;;5092817;28;20078;-81
2022/10/23 06:01:33;;;;;;;0.00;0.00;;;10.20;99.90;;;;;;5092890;28;20093;-81
2022/10/23 06:04:00;;;;;;;0.22;0.20;;;10.30;99.90;;;;;;5092880;28;20044;-81
2022/10/23 06:06:25;;;;;;;0.00;0.00;;;10.20;99.90;;;;;;5076193;28;20052;-81
2022/10/23 06:08:51;;;;;;;0.00;0.00;;;10.30;99.90;;;;;;5092651;28;20039;-81
2022/10/23 06:11:17;;;;;;;0.47;0.28;;;10.20;99.90;;;;;;5092731;28;20048;-81
2022/10/23 06:13:44;;;;;;;0.00;0.00;;;10.30;99.90;;;;;;5092752;28;20036;-81
2022/10/23 06:16:16;;;;;;;0.22;0.15;;;10.30;99.90;;;;;;5092663;28;20058;-81
2022/10/23 06:18:42;;;;;;;1.65;0.43;;;10.30;99.90;;;;;;5092942;28;20047;-81
2022/10/23 06:21:08;;;;;;;0.43;0.38;;;10.40;99.90;;;;;;5075957;28;20083;-81
2022/10/23 06:23:36;;;;;;;0.00;0.00;;;10.30;99.90;;;;;;5075801;28;20094;-81
2022/10/23 06:26:03;;;;;;;0.20;0.08;;;10.40;99.90;;;;;;5093247;28;20373;-81
2022/10/23 06:28:29;;;;;;;0.05;0.05;;;10.40;99.90;;;;;;5075828;28;20396;-81
2022/10/23 06:30:54;;;;;;;0.00;0.00;;;10.50;99.90;;;;;;5092561;28;20044;-81
2022/10/23 06:33:20;;;;;;;0.40;0.25;;;10.40;99.90;;;;;;5092314;28;20067;-81
2022/10/23 06:35:46;;;;;;;0.00;0.00;;;10.50;99.90;;;;;;5086767;28;20060;-85
2022/10/23 06:38:12;;;;;;;0.25;0.10;;;10.50;99.90;;;;;;5112437;28;20047;-81
2022/10/23 06:40:38;;;;;;;0.00;0.00;;;10.50;99.90;;;;;;5095371;28;20142;-81
2022/10/23 06:43:04;;;;;;;0.10;0.00;;;10.50;99.90;;;;;;5112820;28;20131;-80
2022/10/23 06:45:35;;;;;;;0.00;0.00;;;10.50;99.90;;;;;;5095751;28;20043;-81
2022/10/23 06:48:01;;;;;;;0.00;0.00;;;10.50;99.90;;;;;;5096089;28;20047;-81
2022/10/23 06:50:30;;;;;;;0.00;0.00;;;10.60;99.90;;;;;;5113157;28;20039;-81
2022/10/23 06:52:56;;;;;;;0.00;0.00;;;10.60;99.90;;;;;;5112445;28;20399;-81
2022/10/23 06:55:22;;;;;;;0.20;0.20;;;10.60;99.90;;;;;;5112974;28;20050;-81
2022/10/23 06:57:47;;;;;;;0.00;0.00;;;10.70;99.90;;;;;;5097506;28;20086;-81
2022/10/23 07:00:13;;;;;;;0.10;0.10;;;10.70;99.90;;;;;;5116628;28;20139;-81
2022/10/23 07:02:39;;;;;;;0.00;0.00;;;10.70;99.90;;;;;;5100344;28;20138;-81
2022/10/23 07:05:05;;;;;;;0.00;0.00;;;10.70;99.90;;;;;;5115533;28;20051;-81
2022/10/23 07:07:31;;;;;;;0.43;0.10;;;10.80;99.90;;;;;;5116742;28;20050;-81
2022/10/23 07:09:57;;;;;;;0.00;0.00;;;10.80;99.90;;;;;;5116476;28;20043;-81
2022/10/23 07:12:22;;;;;;;0.00;0.00;;;10.80;99.90;;;;;;5099196;28;20444;-81
2022/10/23 07:14:48;;;;;;;3.13;0.65;;;10.80;99.90;;;;;;5115564;28;20048;-81
2022/10/23 07:17:14;;;;;;;0.00;0.00;;;10.80;99.90;;;;;;5099270;28;20093;-81
2022/10/23 07:19:39;;;;;;;0.00;0.00;;;10.90;99.90;;;;;;5099713;28;20050;-81
2022/10/23 07:22:05;;;;;;;0.10;0.10;;;10.90;99.90;;;;;;5099311;28;20189;-80
2022/10/23 07:24:35;;;;;;;0.00;0.00;;;10.90;99.90;;;;;;5116346;28;20472;-81
2022/10/23 07:27:02;;;;;;;0.00;0.00;;;10.90;99.90;;;;;;5116111;28;20048;-81
2022/10/23 07:29:27;;;;;;;0.00;0.00;;;11.00;99.90;;;;;;5116046;28;20139;-80
2022/10/23 07:31:53;;;;;;;0.00;0.00;;;11.00;99.90;;;;;;5099015;28;20090;-81
2022/10/23 07:34:19;;;;;;;0.00;0.00;;;11.00;99.90;;;;;;5098762;28;20063;-81
2022/10/23 07:36:44;;;;;;;0.00;0.00;;;11.00;99.90;;;;;;5115916;28;20053;-80
2022/10/23 07:39:10;;;;;;;0.00;0.00;;;10.90;99.90;;;;;;5115723;28;20536;-80
2022/10/23 07:41:36;;;;;;;12.60;0.43;;;11.00;99.90;;;;;;5115695;28;20399;-81
2022/10/23 07:44:02;;;;;;;0.10;0.00;;;11.00;99.90;;;;;;5099337;28;20039;-80
2022/10/23 07:46:28;;;;;;;0.00;0.00;;;11.10;99.90;;;;;;5115694;28;20052;-80
2022/10/23 07:48:53;;;;;;;0.00;0.00;;;11.10;99.90;;;;;;5098799;28;20036;-80
2022/10/23 07:51:19;;;;;;;0.00;0.00;;;11.10;99.90;;;;;;5098913;28;20040;-80
2022/10/23 07:53:45;;;;;;;0.95;0.55;;;11.20;99.90;;;;;;5098461;28;20098;-80
2022/10/23 07:56:16;;;;;;;0.00;0.00;;;11.20;99.90;;;;;;5098554;28;20101;-80
2022/10/23 07:58:42;;;;;;;0.10;0.10;;;11.20;99.90;;;;;;5098610;28;20043;-80
2022/10/23 08:01:19;;;;;;;1.13;0.25;;;11.30;99.90;;;;;;5098392;28;20045;-80
2022/10/23 08:03:45;;;;;;;0.70;0.40;;;11.30;99.90;;;;;;5115540;28;20090;-80
2022/10/23 08:06:11;;;;;;;0.30;0.20;;;11.40;99.90;;;;;;5115379;28;20079;-80
2022/10/23 08:08:36;;;;;;;0.08;0.08;;;11.40;99.90;;;;;;5114218;28;20054;-80
2022/10/23 08:11:02;;;;;;;0.70;0.52;;;11.50;99.90;;;;;;5098156;28;20380;-80
2022/10/23 08:13:28;;;;;;;0.10;0.00;;;11.50;99.90;;;;;;5097751;28;20043;-80
2022/10/23 08:15:54;;;;;;;0.00;0.00;;;11.60;99.90;;;;;;5098084;28;20043;-80
2022/10/23 08:18:20;;;;;;;0.00;0.00;;;11.60;99.90;;;;;;5115216;28;20522;-80
2022/10/23 08:20:47;;;;;;;0.00;0.00;;;11.60;99.90;;;;;;5115014;28;20050;-80
2022/10/23 08:23:16;;;;;;;0.10;0.00;;;11.70;99.90;;;;;;5114954;28;20403;-80
2022/10/23 08:25:42;;;;;;;0.08;0.00;;;11.80;99.90;;;;;;5115179;28;20097;-80
2022/10/23 08:28:09;;;;;;;0.00;0.00;;;11.80;99.90;;;;;;5114902;28;20485;-80
2022/10/23 08:30:36;;;;;;;0.13;0.00;;;11.90;99.90;;;;;;5098466;28;20063;-80
2022/10/23 08:33:03;;;;;;;3.13;0.70;;;12.00;99.90;;;;;;5114642;28;20468;-80
2022/10/23 08:35:28;;;;;;;0.85;0.13;;;12.10;99.90;;;;;;5114406;28;20051;-80
2022/10/23 08:37:54;;;;;;;0.20;0.17;;;12.30;99.90;;;;;;5097201;28;20177;-80
2022/10/23 08:40:23;;;;;;;0.10;0.10;;;12.50;99.90;;;;;;5114659;28;20454;-80
2022/10/23 08:43:25;;;;;;;0.00;0.00;;;12.70;99.90;;;;;;5114730;28;20051;-79
2022/10/23 08:46:09;;;;;;;0.00;0.00;;;13.00;99.90;;;;;;5075944;28;20447;-80
2022/10/23 08:49:02;;;;;;;0.00;0.00;;;13.20;99.90;;;;;;5076365;28;20181;-80
2022/10/23 08:51:39;;;;;;;0.10;0.10;;;13.40;99.90;;;;;;5074949;28;20404;-80
2022/10/23 08:54:48;;;;;;;0.03;0.03;;;13.50;99.90;;;;;;5059367;28;20169;-80
2022/10/23 08:57:16;;;;;;;0.32;0.32;;;13.70;99.90;;;;;;5016614;28;20555;-80
2022/10/23 08:59:41;;;;;;;0.10;0.10;;;13.80;99.90;;;;;;4999912;28;20111;-80
2022/10/23 09:02:07;;;;;;;0.00;0.00;;;13.90;99.90;;;;;;4999996;28;20567;-80
2022/10/23 09:04:33;;;;;;;0.00;0.00;;;14.00;99.90;;;;;;5016266;28;20062;-80
2022/10/23 09:07:14;;;;;;;0.00;0.00;;;14.10;99.90;;;;;;5016217;28;20057;-80
2022/10/23 09:10:01;;;;;;;0.05;0.05;;;14.10;99.90;;;;;;4999973;28;20409;-80
2022/10/23 09:12:29;;;;;;;0.00;0.00;;;14.10;99.90;;;;;;5016239;28;20041;-80
2022/10/23 09:15:17;;;;;;;0.00;0.00;;;14.10;99.90;;;;;;4999673;28;20076;-80
2022/10/23 09:17:43;;;;;;;0.00;0.00;;;14.00;99.90;;;;;;5016096;28;20413;-80
2022/10/23 09:20:18;;;;;;;0.10;0.10;;;14.00;99.90;;;;;;5015635;28;20489;-80
2022/10/23 09:22:45;;;;;;;0.17;0.17;;;13.90;99.90;;;;;;5026962;28;20078;-80
2022/10/23 09:25:17;;;;;;;0.10;0.05;;;14.00;99.90;;;;;;5055657;28;20048;-80
2022/10/23 09:27:52;;;;;;;0.10;0.10;;;13.90;99.90;;;;;;5055550;28;20060;-80
2022/10/23 09:30:26;;;;;;;0.00;0.00;;;14.00;99.90;;;;;;5055328;28;20193;-80
2022/10/23 09:32:51;;;;;;;0.00;0.00;;;14.00;99.90;;;;;;5069295;28;20100;-80
2022/10/23 09:35:23;;;;;;;0.10;0.00;;;14.00;99.90;;;;;;5113311;28;20052;-80
2022/10/23 09:37:52;;;;;;;0.00;0.00;;;14.10;99.90;;;;;;5113713;28;20055;-80
2022/10/23 09:40:41;;;;;;;0.08;0.08;;;14.10;99.90;;;;;;5112539;28;20063;-80
2022/10/23 09:43:15;;;;;;;0.10;0.10;;;14.20;99.90;;;;;;5113710;28;20050;-80
2022/10/23 09:45:41;;;;;;;0.00;0.00;;;14.20;99.90;;;;;;5097013;28;20056;-80
2022/10/23 09:48:18;;;;;;;0.00;0.00;;;14.20;99.90;;;;;;5113438;28;20059;-80
2022/10/23 09:50:52;;;;;;;0.00;0.00;;;14.20;99.90;;;;;;5096258;28;20440;-80
2022/10/23 09:53:33;;;;;;;0.00;0.00;;;14.30;99.90;;;;;;5096235;28;20047;-80
2022/10/23 09:56:19;;;;;;;2.35;0.47;;;14.30;99.90;;;;;;5113780;28;20040;-80
2022/10/23 09:58:56;;;;;;;0.00;0.00;;;14.40;99.90;;;;;;5113511;28;20140;-80
2022/10/23 10:01:28;;;;;;;0.00;0.00;;;14.40;99.90;;;;;;5096326;28;20051;-80
2022/10/23 10:03:54;;;;;;;1.45;0.45;;;14.50;99.90;;;;;;5096340;28;20570;-80
2022/10/23 10:06:39;;;;;;;0.10;0.00;;;14.50;99.90;;;;;;5113452;28;20075;-80
2022/10/23 10:09:12;;;;;;;0.00;0.00;;;14.60;99.90;;;;;;5112960;28;20040;-80
2022/10/23 10:12:04;;;;;;;0.00;0.00;;;14.60;99.90;;;;;;5096460;28;20056;-80
2022/10/23 10:14:38;;;;;;;0.00;0.00;;;14.60;99.90;;;;;;5113787;28;20096;-80
2022/10/23 10:17:15;;;;;;;0.00;0.00;;;14.60;99.90;;;;;;5113572;28;20089;-80
2022/10/23 10:20:04;;;;;;;0.00;0.00;;;14.70;99.90;;;;;;5096157;28;20411;-80
2022/10/23 10:22:41;;;;;;;0.00;0.00;;;14.80;99.90;;;;;;5058261;28;20048;-80
2022/10/23 10:25:24;;;;;;;0.00;0.00;;;14.80;99.90;;;;;;5074903;28;20048;-80
2022/10/23 10:27:59;;;;;;;0.00;0.00;;;14.90;99.90;;;;;;5074754;28;20385;-80
2022/10/23 10:30:33;;;;;;;0.77;0.50;;;14.90;99.90;;;;;;5074986;28;20108;-80
2022/10/23 10:33:24;;;;;;;0.00;0.00;;;14.90;99.90;;;;;;5060174;28;20117;-80
2022/10/23 10:36:08;;;;;;;0.25;0.00;;;14.90;99.90;;;;;;5017826;28;20058;-80
2022/10/23 10:38:59;;;;;;;0.03;0.00;;;14.90;99.90;;;;;;5002002;28;20045;-80
2022/10/23 10:42:02;;;;;;;0.00;0.00;;;14.90;99.90;;;;;;5018981;28;20133;-80
2022/10/23 10:44:34;;;;;;;0.00;0.00;;;15.00;99.90;;;;;;5018785;28;20060;-80
2022/10/23 10:47:25;;;;;;;0.00;0.00;;;15.00;99.90;;;;;;5002373;28;20050;-80
2022/10/23 10:49:53;;;;;;;0.00;0.00;;;15.00;99.90;;;;;;5002862;28;20436;-80
2022/10/23 10:52:29;;;;;;;0.20;0.17;;;15.10;99.90;;;;;;5001710;28;20050;-80
2022/10/23 10:55:35;;;;;;;0.50;0.00;;;15.10;99.90;;;;;;5018712;28;20056;-80
2022/10/23 10:58:22;;;;;;;0.00;0.00;;;15.10;99.90;;;;;;5018763;28;20088;-80
2022/10/23 11:00:53;;;;;;;0.00;0.00;;;15.10;99.90;;;;;;5041789;28;20086;-80
2022/10/23 11:03:32;;;;;;;0.13;0.00;;;15.10;99.90;;;;;;5058479;28;20565;-81
2022/10/23 11:06:01;;;;;;;0.00;0.00;;;15.20;99.90;;;;;;5041681;28;20056;-80
2022/10/23 11:08:37;;;;;;;0.00;0.00;;;15.10;99.90;;;;;;5058207;28;20044;-80
2022/10/23 11:11:31;;;;;;;0.00;0.00;;;15.10;99.90;;;;;;5058309;28;20041;-80
2022/10/23 11:13:57;;;;;;;0.00;0.00;;;15.10;99.90;;;;;;5110848;28;20146;-80
2022/10/23 11:16:34;;;;;;;0.00;0.00;;;15.10;99.90;;;;;;5116120;28;20106;-80
2022/10/23 11:19:20;;;;;;;0.00;0.00;;;15.10;99.90;;;;;;5117066;28;20483;-80
2022/10/23 11:21:50;;;;;;;;;;;15.10;99.90;;;;;;5099999;28;20047;-80
2022/10/23 11:24:29;;;;;;;0.10;0.10;;;15.10;99.90;;;;;;5116324;28;19920;-80
2022/10/23 11:26:55;;;;;;;0.00;0.00;;;15.10;99.90;;;;;;5116096;28;20047;-80
2022/10/23 11:29:45;;;;;;;0.00;0.00;;;15.00;99.90;;;;;;5098997;28;20059;-80
2022/10/23 11:32:28;;;;;;;0.70;0.38;;;15.00;99.90;;;;;;5099179;28;20044;-80
2022/10/23 11:35:16;;;;;;;0.00;0.00;;;15.10;99.90;;;;;;5114749;28;20086;-81
2022/10/23 11:37:41;;;;;;;0.00;0.00;;;15.10;99.90;;;;;;5098949;28;20441;-80
2022/10/23 11:40:07;;;;;;;0.00;0.00;;;15.20;99.90;;;;;;5116034;28;20039;-80
2022/10/23 11:42:39;;;;;;;0.00;0.00;;;15.20;99.90;;;;;;5115885;28;20139;-80
2022/10/23 11:45:26;;;;;;;0.75;0.20;;;15.30;99.90;;;;;;5097731;28;20051;-80
2022/10/23 11:47:58;;;;;;;0.00;0.00;;;15.20;99.90;;;;;;5115810;28;20127;-80
2022/10/23 11:50:43;;;;;;;0.00;0.00;;;15.30;99.90;;;;;;5115780;28;20083;-80
2022/10/23 11:53:31;;;;;;;0.52;0.45;;;15.30;99.90;;;;;;5114948;28;20052;-81
2022/10/23 11:56:12;;;;;;;0.55;0.20;;;15.30;99.90;;;;;;5098506;28;20052;-81
2022/10/23 11:58:50;;;;;;;0.00;0.00;;;15.30;99.90;;;;;;5115599;28;20475;-80
2022/10/23 12:01:40;;;;;;;0.15;0.10;;;15.30;99.90;;;;;;5115533;28;20041;-80
2022/10/23 12:04:22;;;;;;;0.00;0.00;;;15.40;99.90;;;;;;5115367;28;20039;-80
2022/10/23 12:07:12;;;;;;;0.00;0.00;;;15.50;99.90;;;;;;5098637;28;20048;-80
2022/10/23 12:09:51;;;;;;;0.40;0.10;;;15.50;99.90;;;;;;5115485;28;20056;-80
2022/10/23 12:12:28;;;;;;;0.10;0.00;;;15.50;99.90;;;;;;5115255;28;20047;-80
2022/10/23 12:15:13;;;;;;;0.00;0.00;;;15.50;99.90;;;;;;5097925;28;20047;-80
2022/10/23 12:17:39;;;;;;;;;;;15.50;99.90;;;;;;5116437;28;20051;-80
2022/10/23 12:20:11;;;;;;;0.00;0.00;;;15.60;99.90;;;;;;5097981;28;19923;-80
2022/10/23 12:23:05;;;;;;;0.00;0.00;;;15.60;99.90;;;;;;5098187;28;20433;-80
2022/10/23 12:26:03;;;;;;;0.00;0.00;;;15.60;99.90;;;;;;5115049;28;20487;-80
2022/10/23 12:28:44;;;;;;;0.10;0.10;;;15.70;99.90;;;;;;5098280;28;20082;-80
2022/10/23 12:31:34;;;;;;;0.22;0.00;;;15.60;99.90;;;;;;5115014;28;20391;-81
2022/10/23 12:34:14;;;;;;;0.00;0.00;;;15.80;99.90;;;;;;5115300;28;20126;-81
2022/10/23 12:36:55;;;;;;;0.05;0.05;;;15.80;99.90;;;;;;5114729;28;20048;-80
2022/10/23 12:39:36;;;;;;;0.00;0.00;;;15.80;99.90;;;;;;5097819;28;20063;-80
2022/10/23 12:42:03;;;;;;;0.10;0.10;;;15.90;99.90;;;;;;5114678;28;20486;-81
2022/10/23 12:44:29;;;;;;;0.00;0.00;;;15.80;99.90;;;;;;5097731;28;20040;-80
2022/10/23 12:47:05;;;;;;;0.00;0.00;;;15.80;99.90;;;;;;5098025;28;20047;-80
2022/10/23 12:49:33;;;;;;;0.00;0.00;;;15.80;99.90;;;;;;5097475;28;20131;-80
2022/10/23 12:51:59;;;;;;;0.00;0.00;;;15.70;99.90;;;;;;5115002;28;20127;-81
2022/10/23 12:54:26;;;;;;;0.00;0.00;;;15.70;99.90;;;;;;5097153;28;20055;-80
2022/10/23 12:56:52;;;;;;;0.00;0.00;;;15.70;99.90;;;;;;5097468;28;20082;-81
2022/10/23 12:59:27;;;;;;;0.00;0.00;;;15.70;99.90;;;;;;5114043;28;20043;-80
2022/10/23 13:01:54;;;;;;;0.00;0.00;;;15.70;99.90;;;;;;5097674;28;20108;-80
2022/10/23 13:04:22;;;;;;;0.10;0.10;;;15.70;99.90;;;;;;5097200;28;20070;-80
2022/10/23 13:06:50;;;;;;;0.00;0.00;;;15.70;99.90;;;;;;5114291;28;20047;-81
2022/10/23 13:09:40;;;;;;;0.00;0.00;;;15.80;99.90;;;;;;5114406;28;20043;-80
2022/10/23 13:12:11;;;;;;;0.00;0.00;;;15.80;99.90;;;;;;5097273;28;20039;-81